sensor_id;sensor_type;location;lat;lon;timestamp;P1;durP1;ratioP1;P2;durP2;ratioP2
16892;SDS011;8563;52.242;9.098;2023-03-14T00:01:35;4.30;;;1.20;;
16892;SDS011;8563;52.242;9.098;2023-03-14T00:04:08;2.93;;;1.30;;
16892;SDS011;8563;52.242;9.098;2023-03-14T00:06:40;3.43;;;1.20;;
16892;SDS011;8563;52.242;9.098;2023-03-14T00:09:13;2.67;;;1.50;;
16892;SDS011;8563;52.242;9.098;2023-03-14T00:11:47;2.93;;;1.10;;
16892;SDS011;8563;52.242;9.098;2023-03-14T00:14:19;2.90;;;1.17;;
16892;SDS011;8563;52.242;9.098;2023-03-14T00:16:51;3.33;;;1.27;;
16892;SDS011;8563;52.242;9.098;2023-03-14T00:19:24;2.53;;;1.17;;
16892;SDS011;8563;52.242;9.098;2023-03-14T00:21:56;3.50;;;1.17;;
16892;SDS011;8563;52.242;9.098;2023-03-14T00:24:29;2.90;;;1.40;;
16892;SDS011;8563;52.242;9.098;2023-03-14T00:27:03;4.30;;;1.20;;
16892;SDS011;8563;52.242;9.098;2023-03-14T00:29:35;1.67;;;1.10;;
16892;SDS011;8563;52.242;9.098;2023-03-14T00:32:08;3.07;;;1.30;;
16892;SDS011;8563;52.242;9.098;2023-03-14T00:34:43;4.77;;;1.10;;
16892;SDS011;8563;52.242;9.098;2023-03-14T00:37:16;2.53;;;1.00;;
16892;SDS011;8563;52.242;9.098;2023-03-14T00:39:50;5.23;;;1.40;;
16892;SDS011;8563;52.242;9.098;2023-03-14T00:42:25;2.80;;;1.20;;
16892;SDS011;8563;52.242;9.098;2023-03-14T00:44:57;4.57;;;1.17;;
16892;SDS011;8563;52.242;9.098;2023-03-14T00:47:30;2.30;;;1.07;;
16892;SDS011;8563;52.242;9.098;2023-03-14T00:50:03;3.57;;;0.97;;
16892;SDS011;8563;52.242;9.098;2023-03-14T00:52:35;2.30;;;1.10;;
16892;SDS011;8563;52.242;9.098;2023-03-14T00:55:09;2.23;;;1.20;;
16892;SDS011;8563;52.242;9.098;2023-03-14T00:57:43;5.13;;;1.00;;
16892;SDS011;8563;52.242;9.098;2023-03-14T01:00:16;5.33;;;1.27;;
16892;SDS011;8563;52.242;9.098;2023-03-14T01:02:48;4.03;;;1.37;;
16892;SDS011;8563;52.242;9.098;2023-03-14T01:05:21;5.10;;;1.47;;
16892;SDS011;8563;52.242;9.098;2023-03-14T01:07:54;5.20;;;1.80;;
16892;SDS011;8563;52.242;9.098;2023-03-14T01:10:26;3.30;;;1.37;;
16892;SDS011;8563;52.242;9.098;2023-03-14T01:13:00;6.37;;;1.50;;
16892;SDS011;8563;52.242;9.098;2023-03-14T01:15:33;3.60;;;1.20;;
16892;SDS011;8563;52.242;9.098;2023-03-14T01:18:06;4.47;;;1.20;;
16892;SDS011;8563;52.242;9.098;2023-03-14T01:20:38;4.10;;;1.50;;
16892;SDS011;8563;52.242;9.098;2023-03-14T01:23:11;2.33;;;1.00;;
16892;SDS011;8563;52.242;9.098;2023-03-14T01:25:43;2.93;;;1.30;;
16892;SDS011;8563;52.242;9.098;2023-03-14T01:28:18;4.27;;;1.40;;
16892;SDS011;8563;52.242;9.098;2023-03-14T01:30:50;4.93;;;1.30;;
16892;SDS011;8563;52.242;9.098;2023-03-14T01:33:23;4.43;;;1.20;;
16892;SDS011;8563;52.242;9.098;2023-03-14T01:35:55;3.67;;;1.20;;
16892;SDS011;8563;52.242;9.098;2023-03-14T01:38:28;6.00;;;1.27;;
16892;SDS011;8563;52.242;9.098;2023-03-14T01:41:01;4.73;;;1.30;;
16892;SDS011;8563;52.242;9.098;2023-03-14T01:43:35;2.60;;;1.10;;
16892;SDS011;8563;52.242;9.098;2023-03-14T01:46:19;4.07;;;1.20;;
16892;SDS011;8563;52.242;9.098;2023-03-14T01:48:54;4.63;;;1.20;;
16892;SDS011;8563;52.242;9.098;2023-03-14T01:51:29;4.67;;;1.50;;
16892;SDS011;8563;52.242;9.098;2023-03-14T01:54:06;4.63;;;1.30;;
16892;SDS011;8563;52.242;9.098;2023-03-14T01:56:40;2.73;;;1.23;;
16892;SDS011;8563;52.242;9.098;2023-03-14T01:59:15;5.67;;;1.67;;
16892;SDS011;8563;52.242;9.098;2023-03-14T02:01:47;2.90;;;1.07;;
16892;SDS011;8563;52.242;9.098;2023-03-14T02:04:21;3.40;;;1.10;;
16892;SDS011;8563;52.242;9.098;2023-03-14T02:06:57;3.90;;;1.20;;
16892;SDS011;8563;52.242;9.098;2023-03-14T02:09:35;4.63;;;1.17;;
16892;SDS011;8563;52.242;9.098;2023-03-14T02:12:08;3.97;;;1.33;;
16892;SDS011;8563;52.242;9.098;2023-03-14T02:14:55;4.87;;;1.40;;
16892;SDS011;8563;52.242;9.098;2023-03-14T02:17:33;4.63;;;1.47;;
16892;SDS011;8563;52.242;9.098;2023-03-14T02:20:25;4.30;;;1.30;;
16892;SDS011;8563;52.242;9.098;2023-03-14T02:23:01;3.30;;;1.23;;
16892;SDS011;8563;52.242;9.098;2023-03-14T02:25:38;3.77;;;1.40;;
16892;SDS011;8563;52.242;9.098;2023-03-14T02:28:13;4.20;;;1.30;;
16892;SDS011;8563;52.242;9.098;2023-03-14T02:30:46;4.03;;;1.47;;
16892;SDS011;8563;52.242;9.098;2023-03-14T02:33:21;2.97;;;1.33;;
16892;SDS011;8563;52.242;9.098;2023-03-14T02:35:55;2.73;;;1.00;;
16892;SDS011;8563;52.242;9.098;2023-03-14T02:38:31;3.60;;;1.27;;
16892;SDS011;8563;52.242;9.098;2023-03-14T02:41:07;4.27;;;1.47;;
16892;SDS011;8563;52.242;9.098;2023-03-14T02:43:47;3.07;;;1.23;;
16892;SDS011;8563;52.242;9.098;2023-03-14T02:46:20;5.33;;;1.50;;
16892;SDS011;8563;52.242;9.098;2023-03-14T02:48:54;2.47;;;1.17;;
16892;SDS011;8563;52.242;9.098;2023-03-14T02:51:28;4.37;;;1.20;;
16892;SDS011;8563;52.242;9.098;2023-03-14T02:54:00;4.90;;;1.30;;
16892;SDS011;8563;52.242;9.098;2023-03-14T02:56:34;4.93;;;1.20;;
16892;SDS011;8563;52.242;9.098;2023-03-14T02:59:09;6.37;;;1.10;;
16892;SDS011;8563;52.242;9.098;2023-03-14T03:01:55;3.13;;;1.07;;
16892;SDS011;8563;52.242;9.098;2023-03-14T03:04:29;4.33;;;1.40;;
16892;SDS011;8563;52.242;9.098;2023-03-14T03:07:02;4.33;;;1.23;;
16892;SDS011;8563;52.242;9.098;2023-03-14T03:09:34;4.57;;;1.07;;
16892;SDS011;8563;52.242;9.098;2023-03-14T03:12:07;4.03;;;1.20;;
16892;SDS011;8563;52.242;9.098;2023-03-14T03:14:41;3.27;;;0.87;;
16892;SDS011;8563;52.242;9.098;2023-03-14T03:17:13;1.33;;;0.57;;
16892;SDS011;8563;52.242;9.098;2023-03-14T03:19:46;1.60;;;0.43;;
16892;SDS011;8563;52.242;9.098;2023-03-14T03:22:19;1.17;;;0.60;;
16892;SDS011;8563;52.242;9.098;2023-03-14T03:24:51;0.83;;;0.40;;
16892;SDS011;8563;52.242;9.098;2023-03-14T03:27:24;0.80;;;0.33;;
16892;SDS011;8563;52.242;9.098;2023-03-14T03:29:58;1.73;;;0.53;;
16892;SDS011;8563;52.242;9.098;2023-03-14T03:32:33;1.53;;;0.50;;
16892;SDS011;8563;52.242;9.098;2023-03-14T03:35:06;1.37;;;0.60;;
16892;SDS011;8563;52.242;9.098;2023-03-14T03:37:41;2.23;;;0.40;;
16892;SDS011;8563;52.242;9.098;2023-03-14T03:40:14;2.70;;;0.73;;
16892;SDS011;8563;52.242;9.098;2023-03-14T03:42:46;1.83;;;0.43;;
16892;SDS011;8563;52.242;9.098;2023-03-14T03:45:21;4.07;;;0.70;;
16892;SDS011;8563;52.242;9.098;2023-03-14T03:47:58;1.87;;;0.50;;
16892;SDS011;8563;52.242;9.098;2023-03-14T03:50:30;1.57;;;0.50;;
16892;SDS011;8563;52.242;9.098;2023-03-14T03:53:03;2.53;;;0.50;;
16892;SDS011;8563;52.242;9.098;2023-03-14T03:55:35;1.63;;;0.50;;
16892;SDS011;8563;52.242;9.098;2023-03-14T03:58:08;1.30;;;0.50;;
16892;SDS011;8563;52.242;9.098;2023-03-14T04:00:42;2.73;;;0.60;;
16892;SDS011;8563;52.242;9.098;2023-03-14T04:03:14;1.70;;;0.60;;
16892;SDS011;8563;52.242;9.098;2023-03-14T04:05:57;1.70;;;0.60;;
16892;SDS011;8563;52.242;9.098;2023-03-14T04:08:30;2.17;;;0.70;;
16892;SDS011;8563;52.242;9.098;2023-03-14T04:11:03;1.80;;;0.50;;
16892;SDS011;8563;52.242;9.098;2023-03-14T04:13:54;2.00;;;0.70;;
16892;SDS011;8563;52.242;9.098;2023-03-14T04:16:29;3.33;;;0.63;;
16892;SDS011;8563;52.242;9.098;2023-03-14T04:19:13;4.10;;;0.80;;
16892;SDS011;8563;52.242;9.098;2023-03-14T04:21:46;2.47;;;0.73;;
16892;SDS011;8563;52.242;9.098;2023-03-14T04:24:18;3.37;;;1.07;;
16892;SDS011;8563;52.242;9.098;2023-03-14T04:26:53;3.13;;;0.77;;
16892;SDS011;8563;52.242;9.098;2023-03-14T04:29:25;2.43;;;0.63;;
16892;SDS011;8563;52.242;9.098;2023-03-14T04:32:00;2.13;;;0.70;;
16892;SDS011;8563;52.242;9.098;2023-03-14T04:34:32;3.80;;;0.80;;
16892;SDS011;8563;52.242;9.098;2023-03-14T04:37:05;2.13;;;0.50;;
16892;SDS011;8563;52.242;9.098;2023-03-14T04:39:42;3.10;;;0.70;;
16892;SDS011;8563;52.242;9.098;2023-03-14T04:42:28;4.13;;;1.00;;
16892;SDS011;8563;52.242;9.098;2023-03-14T04:45:01;3.50;;;1.20;;
16892;SDS011;8563;52.242;9.098;2023-03-14T04:47:37;5.67;;;0.90;;
16892;SDS011;8563;52.242;9.098;2023-03-14T04:50:10;3.90;;;1.00;;
16892;SDS011;8563;52.242;9.098;2023-03-14T04:52:43;6.40;;;0.90;;
16892;SDS011;8563;52.242;9.098;2023-03-14T04:55:16;4.50;;;0.90;;
16892;SDS011;8563;52.242;9.098;2023-03-14T04:57:48;2.53;;;0.87;;
16892;SDS011;8563;52.242;9.098;2023-03-14T05:00:21;4.60;;;1.20;;
16892;SDS011;8563;52.242;9.098;2023-03-14T05:03:11;5.07;;;0.87;;
16892;SDS011;8563;52.242;9.098;2023-03-14T05:06:00;3.33;;;0.90;;
16892;SDS011;8563;52.242;9.098;2023-03-14T05:08:42;4.43;;;1.13;;
16892;SDS011;8563;52.242;9.098;2023-03-14T05:11:38;3.03;;;1.20;;
16892;SDS011;8563;52.242;9.098;2023-03-14T05:14:19;4.43;;;1.13;;
16892;SDS011;8563;52.242;9.098;2023-03-14T05:17:18;4.33;;;1.17;;
16892;SDS011;8563;52.242;9.098;2023-03-14T05:20:12;3.23;;;1.17;;
16892;SDS011;8563;52.242;9.098;2023-03-14T05:23:21;3.97;;;1.47;;
16892;SDS011;8563;52.242;9.098;2023-03-14T05:26:14;2.73;;;1.03;;
16892;SDS011;8563;52.242;9.098;2023-03-14T05:29:01;7.43;;;1.13;;
16892;SDS011;8563;52.242;9.098;2023-03-14T05:32:00;5.17;;;1.23;;
16892;SDS011;8563;52.242;9.098;2023-03-14T05:35:12;4.43;;;1.23;;
16892;SDS011;8563;52.242;9.098;2023-03-14T05:38:11;5.40;;;1.40;;
16892;SDS011;8563;52.242;9.098;2023-03-14T05:41:02;4.30;;;1.40;;
16892;SDS011;8563;52.242;9.098;2023-03-14T05:43:53;5.57;;;1.40;;
16892;SDS011;8563;52.242;9.098;2023-03-14T05:46:57;5.67;;;1.00;;
16892;SDS011;8563;52.242;9.098;2023-03-14T05:49:49;5.47;;;1.40;;
16892;SDS011;8563;52.242;9.098;2023-03-14T05:52:38;4.80;;;1.27;;
16892;SDS011;8563;52.242;9.098;2023-03-14T05:55:24;4.17;;;0.97;;
16892;SDS011;8563;52.242;9.098;2023-03-14T05:58:14;5.00;;;1.17;;
16892;SDS011;8563;52.242;9.098;2023-03-14T06:01:05;4.93;;;1.03;;
16892;SDS011;8563;52.242;9.098;2023-03-14T06:03:56;4.00;;;1.20;;
16892;SDS011;8563;52.242;9.098;2023-03-14T06:06:29;1.80;;;0.90;;
16892;SDS011;8563;52.242;9.098;2023-03-14T06:09:04;4.60;;;1.10;;
16892;SDS011;8563;52.242;9.098;2023-03-14T06:11:40;3.03;;;0.97;;
16892;SDS011;8563;52.242;9.098;2023-03-14T06:14:12;3.30;;;1.10;;
16892;SDS011;8563;52.242;9.098;2023-03-14T06:16:48;4.13;;;1.20;;
16892;SDS011;8563;52.242;9.098;2023-03-14T06:19:23;1.23;;;0.60;;
16892;SDS011;8563;52.242;9.098;2023-03-14T06:21:56;4.03;;;0.80;;
16892;SDS011;8563;52.242;9.098;2023-03-14T06:24:33;2.63;;;0.70;;
16892;SDS011;8563;52.242;9.098;2023-03-14T06:27:06;1.43;;;0.60;;
16892;SDS011;8563;52.242;9.098;2023-03-14T06:29:38;2.83;;;0.67;;
16892;SDS011;8563;52.242;9.098;2023-03-14T06:32:11;1.67;;;0.60;;
16892;SDS011;8563;52.242;9.098;2023-03-14T06:34:44;3.90;;;0.60;;
16892;SDS011;8563;52.242;9.098;2023-03-14T06:37:17;3.20;;;0.60;;
16892;SDS011;8563;52.242;9.098;2023-03-14T06:39:52;3.07;;;0.70;;
16892;SDS011;8563;52.242;9.098;2023-03-14T06:42:42;0.90;;;0.47;;
16892;SDS011;8563;52.242;9.098;2023-03-14T06:45:15;1.83;;;0.40;;
16892;SDS011;8563;52.242;9.098;2023-03-14T06:47:49;3.33;;;0.60;;
16892;SDS011;8563;52.242;9.098;2023-03-14T06:50:24;1.37;;;0.43;;
16892;SDS011;8563;52.242;9.098;2023-03-14T06:52:57;1.00;;;0.47;;
16892;SDS011;8563;52.242;9.098;2023-03-14T06:55:32;1.90;;;0.53;;
16892;SDS011;8563;52.242;9.098;2023-03-14T06:58:04;1.30;;;0.50;;
16892;SDS011;8563;52.242;9.098;2023-03-14T07:00:43;1.27;;;0.30;;
16892;SDS011;8563;52.242;9.098;2023-03-14T07:03:21;1.57;;;0.40;;
16892;SDS011;8563;52.242;9.098;2023-03-14T07:05:54;1.33;;;0.30;;
16892;SDS011;8563;52.242;9.098;2023-03-14T07:08:27;2.07;;;0.70;;
16892;SDS011;8563;52.242;9.098;2023-03-14T07:11:01;1.83;;;0.50;;
16892;SDS011;8563;52.242;9.098;2023-03-14T07:13:34;2.10;;;0.40;;
16892;SDS011;8563;52.242;9.098;2023-03-14T07:16:09;1.23;;;0.40;;
16892;SDS011;8563;52.242;9.098;2023-03-14T07:18:42;1.67;;;0.30;;
16892;SDS011;8563;52.242;9.098;2023-03-14T07:21:14;1.13;;;0.30;;
16892;SDS011;8563;52.242;9.098;2023-03-14T07:23:47;0.90;;;0.37;;
16892;SDS011;8563;52.242;9.098;2023-03-14T07:26:22;1.10;;;0.30;;
16892;SDS011;8563;52.242;9.098;2023-03-14T07:29:01;1.80;;;0.40;;
16892;SDS011;8563;52.242;9.098;2023-03-14T07:31:34;1.00;;;0.30;;
16892;SDS011;8563;52.242;9.098;2023-03-14T07:34:07;1.00;;;0.33;;
16892;SDS011;8563;52.242;9.098;2023-03-14T07:36:43;0.60;;;0.30;;
16892;SDS011;8563;52.242;9.098;2023-03-14T07:39:16;1.40;;;0.70;;
16892;SDS011;8563;52.242;9.098;2023-03-14T07:42:04;0.87;;;0.30;;
16892;SDS011;8563;52.242;9.098;2023-03-14T07:45:03;0.77;;;0.37;;
16892;SDS011;8563;52.242;9.098;2023-03-14T07:47:35;1.90;;;0.50;;
16892;SDS011;8563;52.242;9.098;2023-03-14T07:50:09;1.13;;;0.40;;
16892;SDS011;8563;52.242;9.098;2023-03-14T07:52:41;0.60;;;0.40;;
16892;SDS011;8563;52.242;9.098;2023-03-14T07:55:14;1.03;;;0.30;;
16892;SDS011;8563;52.242;9.098;2023-03-14T07:57:48;0.80;;;0.37;;
16892;SDS011;8563;52.242;9.098;2023-03-14T08:00:21;1.67;;;0.40;;
16892;SDS011;8563;52.242;9.098;2023-03-14T08:02:54;0.90;;;0.40;;
16892;SDS011;8563;52.242;9.098;2023-03-14T08:05:26;1.27;;;0.60;;
16892;SDS011;8563;52.242;9.098;2023-03-14T08:07:58;1.10;;;0.30;;
16892;SDS011;8563;52.242;9.098;2023-03-14T08:10:31;1.43;;;0.40;;
16892;SDS011;8563;52.242;9.098;2023-03-14T08:13:05;1.07;;;0.30;;
16892;SDS011;8563;52.242;9.098;2023-03-14T08:15:38;0.77;;;0.40;;
16892;SDS011;8563;52.242;9.098;2023-03-14T08:18:10;0.90;;;0.30;;
16892;SDS011;8563;52.242;9.098;2023-03-14T08:20:43;0.77;;;0.20;;
16892;SDS011;8563;52.242;9.098;2023-03-14T08:23:15;1.90;;;0.50;;
16892;SDS011;8563;52.242;9.098;2023-03-14T08:25:48;1.33;;;0.30;;
16892;SDS011;8563;52.242;9.098;2023-03-14T08:28:23;0.87;;;0.43;;
16892;SDS011;8563;52.242;9.098;2023-03-14T08:31:00;0.73;;;0.30;;
16892;SDS011;8563;52.242;9.098;2023-03-14T08:33:33;1.00;;;0.57;;
16892;SDS011;8563;52.242;9.098;2023-03-14T08:36:06;1.67;;;0.40;;
16892;SDS011;8563;52.242;9.098;2023-03-14T08:38:39;1.03;;;0.37;;
16892;SDS011;8563;52.242;9.098;2023-03-14T08:41:12;0.70;;;0.40;;
16892;SDS011;8563;52.242;9.098;2023-03-14T08:43:46;1.80;;;0.50;;
16892;SDS011;8563;52.242;9.098;2023-03-14T08:46:18;1.23;;;0.40;;
16892;SDS011;8563;52.242;9.098;2023-03-14T08:48:51;2.43;;;0.60;;
16892;SDS011;8563;52.242;9.098;2023-03-14T08:51:23;0.80;;;0.60;;
16892;SDS011;8563;52.242;9.098;2023-03-14T08:53:56;1.57;;;0.80;;
16892;SDS011;8563;52.242;9.098;2023-03-14T08:56:28;1.17;;;0.50;;
16892;SDS011;8563;52.242;9.098;2023-03-14T08:59:02;1.17;;;0.60;;
16892;SDS011;8563;52.242;9.098;2023-03-14T09:01:35;1.07;;;0.60;;
16892;SDS011;8563;52.242;9.098;2023-03-14T09:04:07;1.90;;;0.67;;
16892;SDS011;8563;52.242;9.098;2023-03-14T09:06:40;1.43;;;0.50;;
16892;SDS011;8563;52.242;9.098;2023-03-14T09:09:12;2.33;;;0.60;;
16892;SDS011;8563;52.242;9.098;2023-03-14T09:11:44;2.20;;;0.70;;
16892;SDS011;8563;52.242;9.098;2023-03-14T09:14:18;1.23;;;0.60;;
16892;SDS011;8563;52.242;9.098;2023-03-14T09:16:51;1.10;;;0.63;;
16892;SDS011;8563;52.242;9.098;2023-03-14T09:19:24;1.47;;;0.60;;
16892;SDS011;8563;52.242;9.098;2023-03-14T09:21:56;1.60;;;0.80;;
16892;SDS011;8563;52.242;9.098;2023-03-14T09:24:28;0.90;;;0.57;;
16892;SDS011;8563;52.242;9.098;2023-03-14T09:27:01;1.43;;;0.67;;
16892;SDS011;8563;52.242;9.098;2023-03-14T09:29:35;1.17;;;0.60;;
16892;SDS011;8563;52.242;9.098;2023-03-14T09:32:08;2.23;;;0.60;;
16892;SDS011;8563;52.242;9.098;2023-03-14T09:34:41;1.47;;;0.70;;
16892;SDS011;8563;52.242;9.098;2023-03-14T09:37:13;2.30;;;0.67;;
16892;SDS011;8563;52.242;9.098;2023-03-14T09:39:47;0.93;;;0.70;;
16892;SDS011;8563;52.242;9.098;2023-03-14T09:42:20;1.40;;;0.80;;
16892;SDS011;8563;52.242;9.098;2023-03-14T09:44:56;0.93;;;0.57;;
16892;SDS011;8563;52.242;9.098;2023-03-14T09:47:28;1.00;;;0.70;;
16892;SDS011;8563;52.242;9.098;2023-03-14T09:50:01;0.87;;;0.60;;
16892;SDS011;8563;52.242;9.098;2023-03-14T09:52:37;1.60;;;0.73;;
16892;SDS011;8563;52.242;9.098;2023-03-14T09:55:12;1.50;;;0.80;;
16892;SDS011;8563;52.242;9.098;2023-03-14T09:57:45;1.37;;;1.00;;
16892;SDS011;8563;52.242;9.098;2023-03-14T10:00:21;1.47;;;1.10;;
16892;SDS011;8563;52.242;9.098;2023-03-14T10:02:54;1.67;;;1.30;;
16892;SDS011;8563;52.242;9.098;2023-03-14T10:05:27;2.57;;;1.00;;
16892;SDS011;8563;52.242;9.098;2023-03-14T10:07:59;1.50;;;1.07;;
16892;SDS011;8563;52.242;9.098;2023-03-14T10:10:32;1.13;;;1.00;;
16892;SDS011;8563;52.242;9.098;2023-03-14T10:13:10;1.20;;;1.10;;
16892;SDS011;8563;52.242;9.098;2023-03-14T10:15:48;1.70;;;1.13;;
16892;SDS011;8563;52.242;9.098;2023-03-14T10:18:23;1.40;;;1.30;;
16892;SDS011;8563;52.242;9.098;2023-03-14T10:21:01;1.63;;;1.43;;
16892;SDS011;8563;52.242;9.098;2023-03-14T10:23:34;2.67;;;1.50;;
16892;SDS011;8563;52.242;9.098;2023-03-14T10:26:08;3.30;;;1.50;;
16892;SDS011;8563;52.242;9.098;2023-03-14T10:28:43;2.47;;;1.60;;
16892;SDS011;8563;52.242;9.098;2023-03-14T10:31:17;1.93;;;1.40;;
16892;SDS011;8563;52.242;9.098;2023-03-14T10:34:00;3.53;;;1.70;;
16892;SDS011;8563;52.242;9.098;2023-03-14T10:36:33;2.43;;;1.50;;
16892;SDS011;8563;52.242;9.098;2023-03-14T10:39:18;2.23;;;1.70;;
16892;SDS011;8563;52.242;9.098;2023-03-14T10:41:54;1.70;;;1.60;;
16892;SDS011;8563;52.242;9.098;2023-03-14T10:44:28;2.43;;;1.97;;
16892;SDS011;8563;52.242;9.098;2023-03-14T10:47:03;2.37;;;1.90;;
16892;SDS011;8563;52.242;9.098;2023-03-14T10:49:36;2.60;;;2.40;;
16892;SDS011;8563;52.242;9.098;2023-03-14T10:52:13;3.43;;;1.70;;
16892;SDS011;8563;52.242;9.098;2023-03-14T10:54:47;4.70;;;1.30;;
16892;SDS011;8563;52.242;9.098;2023-03-14T10:57:20;2.23;;;1.10;;
16892;SDS011;8563;52.242;9.098;2023-03-14T10:59:53;2.03;;;0.40;;
16892;SDS011;8563;52.242;9.098;2023-03-14T11:05:18;0.40;;;0.30;;
16892;SDS011;8563;52.242;9.098;2023-03-14T11:07:54;3.00;;;0.33;;
16892;SDS011;8563;52.242;9.098;2023-03-14T11:10:31;1.80;;;0.50;;
16892;SDS011;8563;52.242;9.098;2023-03-14T11:13:08;0.87;;;0.60;;
16892;SDS011;8563;52.242;9.098;2023-03-14T11:15:46;2.27;;;0.83;;
16892;SDS011;8563;52.242;9.098;2023-03-14T11:21:13;3.90;;;3.60;;
16892;SDS011;8563;52.242;9.098;2023-03-14T11:23:47;0.87;;;0.70;;
16892;SDS011;8563;52.242;9.098;2023-03-14T11:26:25;0.70;;;0.30;;
16892;SDS011;8563;52.242;9.098;2023-03-14T11:29:02;0.90;;;0.70;;
16892;SDS011;8563;52.242;9.098;2023-03-14T11:31:40;0.77;;;0.50;;
16892;SDS011;8563;52.242;9.098;2023-03-14T11:34:17;1.87;;;1.20;;
16892;SDS011;8563;52.242;9.098;2023-03-14T11:36:55;0.77;;;0.60;;
16892;SDS011;8563;52.242;9.098;2023-03-14T11:39:34;0.90;;;0.70;;
16892;SDS011;8563;52.242;9.098;2023-03-14T11:42:10;0.50;;;0.30;;
16892;SDS011;8563;52.242;9.098;2023-03-14T11:44:44;0.43;;;0.40;;
16892;SDS011;8563;52.242;9.098;2023-03-14T11:47:19;0.70;;;0.30;;
16892;SDS011;8563;52.242;9.098;2023-03-14T11:49:53;0.30;;;0.30;;
16892;SDS011;8563;52.242;9.098;2023-03-14T11:52:31;0.70;;;0.20;;
16892;SDS011;8563;52.242;9.098;2023-03-14T11:55:05;1.37;;;0.30;;
16892;SDS011;8563;52.242;9.098;2023-03-14T11:57:39;1.27;;;0.30;;
16892;SDS011;8563;52.242;9.098;2023-03-14T12:00:14;0.53;;;0.30;;
16892;SDS011;8563;52.242;9.098;2023-03-14T12:02:49;0.73;;;0.47;;
16892;SDS011;8563;52.242;9.098;2023-03-14T12:05:44;0.40;;;0.20;;
16892;SDS011;8563;52.242;9.098;2023-03-14T12:11:08;0.70;;;0.23;;
16892;SDS011;8563;52.242;9.098;2023-03-14T12:13:41;1.60;;;0.30;;
16892;SDS011;8563;52.242;9.098;2023-03-14T12:16:22;0.70;;;0.23;;
16892;SDS011;8563;52.242;9.098;2023-03-14T12:18:56;1.10;;;0.40;;
16892;SDS011;8563;52.242;9.098;2023-03-14T12:21:43;0.70;;;0.20;;
16892;SDS011;8563;52.242;9.098;2023-03-14T12:24:17;1.53;;;0.40;;
16892;SDS011;8563;52.242;9.098;2023-03-14T12:26:55;1.57;;;0.50;;
16892;SDS011;8563;52.242;9.098;2023-03-14T12:29:28;1.73;;;0.60;;
16892;SDS011;8563;52.242;9.098;2023-03-14T12:32:21;2.50;;;0.60;;
16892;SDS011;8563;52.242;9.098;2023-03-14T12:34:55;1.37;;;0.50;;
16892;SDS011;8563;52.242;9.098;2023-03-14T12:37:28;3.40;;;0.90;;
16892;SDS011;8563;52.242;9.098;2023-03-14T12:40:10;2.63;;;0.70;;
16892;SDS011;8563;52.242;9.098;2023-03-14T12:43:04;1.97;;;0.80;;
16892;SDS011;8563;52.242;9.098;2023-03-14T12:46:06;2.50;;;0.90;;
16892;SDS011;8563;52.242;9.098;2023-03-14T12:48:40;5.33;;;0.80;;
16892;SDS011;8563;52.242;9.098;2023-03-14T12:51:12;3.43;;;0.80;;
16892;SDS011;8563;52.242;9.098;2023-03-14T12:53:54;5.20;;;0.97;;
16892;SDS011;8563;52.242;9.098;2023-03-14T12:56:42;2.60;;;0.70;;
16892;SDS011;8563;52.242;9.098;2023-03-14T12:59:23;5.43;;;1.30;;
16892;SDS011;8563;52.242;9.098;2023-03-14T13:02:00;3.30;;;1.10;;
16892;SDS011;8563;52.242;9.098;2023-03-14T13:04:33;3.57;;;1.00;;
16892;SDS011;8563;52.242;9.098;2023-03-14T13:07:10;4.10;;;1.17;;
16892;SDS011;8563;52.242;9.098;2023-03-14T13:12:25;3.47;;;1.10;;
16892;SDS011;8563;52.242;9.098;2023-03-14T13:15:01;3.87;;;1.13;;
16892;SDS011;8563;52.242;9.098;2023-03-14T13:17:45;3.50;;;0.90;;
16892;SDS011;8563;52.242;9.098;2023-03-14T13:20:19;3.43;;;1.00;;
16892;SDS011;8563;52.242;9.098;2023-03-14T13:22:54;5.47;;;1.17;;
16892;SDS011;8563;52.242;9.098;2023-03-14T13:25:29;5.73;;;1.10;;
16892;SDS011;8563;52.242;9.098;2023-03-14T13:28:02;6.53;;;1.20;;
16892;SDS011;8563;52.242;9.098;2023-03-14T13:30:41;3.67;;;1.07;;
16892;SDS011;8563;52.242;9.098;2023-03-14T13:33:15;6.27;;;2.20;;
16892;SDS011;8563;52.242;9.098;2023-03-14T13:35:48;7.87;;;3.60;;
16892;SDS011;8563;52.242;9.098;2023-03-14T13:38:22;7.33;;;1.47;;
16892;SDS011;8563;52.242;9.098;2023-03-14T13:40:55;5.23;;;1.40;;
16892;SDS011;8563;52.242;9.098;2023-03-14T13:43:30;5.37;;;1.17;;
16892;SDS011;8563;52.242;9.098;2023-03-14T13:46:05;4.77;;;1.43;;
16892;SDS011;8563;52.242;9.098;2023-03-14T13:48:40;7.00;;;1.77;;
16892;SDS011;8563;52.242;9.098;2023-03-14T13:51:16;4.00;;;1.40;;
16892;SDS011;8563;52.242;9.098;2023-03-14T13:53:49;7.33;;;1.70;;
16892;SDS011;8563;52.242;9.098;2023-03-14T13:56:23;4.77;;;1.40;;
16892;SDS011;8563;52.242;9.098;2023-03-14T13:58:56;6.63;;;1.63;;
16892;SDS011;8563;52.242;9.098;2023-03-14T14:01:30;6.90;;;1.90;;
16892;SDS011;8563;52.242;9.098;2023-03-14T14:04:05;5.33;;;1.60;;
16892;SDS011;8563;52.242;9.098;2023-03-14T14:06:39;6.07;;;1.67;;
16892;SDS011;8563;52.242;9.098;2023-03-14T14:09:17;11.43;;;2.17;;
16892;SDS011;8563;52.242;9.098;2023-03-14T14:11:52;7.00;;;1.53;;
16892;SDS011;8563;52.242;9.098;2023-03-14T14:14:26;5.27;;;1.70;;
16892;SDS011;8563;52.242;9.098;2023-03-14T14:17:02;7.30;;;1.80;;
16892;SDS011;8563;52.242;9.098;2023-03-14T14:19:36;8.97;;;2.10;;
16892;SDS011;8563;52.242;9.098;2023-03-14T14:22:09;6.50;;;1.50;;
16892;SDS011;8563;52.242;9.098;2023-03-14T14:24:42;8.23;;;1.70;;
16892;SDS011;8563;52.242;9.098;2023-03-14T14:27:16;8.20;;;1.87;;
16892;SDS011;8563;52.242;9.098;2023-03-14T14:29:56;11.37;;;2.83;;
16892;SDS011;8563;52.242;9.098;2023-03-14T14:32:35;8.53;;;2.13;;
16892;SDS011;8563;52.242;9.098;2023-03-14T14:35:08;8.50;;;2.30;;
16892;SDS011;8563;52.242;9.098;2023-03-14T14:37:43;7.17;;;2.10;;
16892;SDS011;8563;52.242;9.098;2023-03-14T14:40:16;9.47;;;2.40;;
16892;SDS011;8563;52.242;9.098;2023-03-14T14:42:51;7.33;;;1.87;;
16892;SDS011;8563;52.242;9.098;2023-03-14T14:45:24;8.97;;;2.17;;
16892;SDS011;8563;52.242;9.098;2023-03-14T14:48:02;7.17;;;1.93;;
16892;SDS011;8563;52.242;9.098;2023-03-14T14:50:37;8.83;;;2.30;;
16892;SDS011;8563;52.242;9.098;2023-03-14T14:53:19;8.43;;;2.17;;
16892;SDS011;8563;52.242;9.098;2023-03-14T14:55:54;6.83;;;1.60;;
16892;SDS011;8563;52.242;9.098;2023-03-14T14:58:28;9.40;;;1.83;;
16892;SDS011;8563;52.242;9.098;2023-03-14T15:01:03;6.53;;;1.73;;
16892;SDS011;8563;52.242;9.098;2023-03-14T15:03:38;12.00;;;1.97;;
16892;SDS011;8563;52.242;9.098;2023-03-14T15:06:11;8.83;;;1.63;;
16892;SDS011;8563;52.242;9.098;2023-03-14T15:08:45;9.73;;;1.70;;
16892;SDS011;8563;52.242;9.098;2023-03-14T15:11:19;22.97;;;20.80;;
16892;SDS011;8563;52.242;9.098;2023-03-14T15:13:52;9.30;;;2.53;;
16892;SDS011;8563;52.242;9.098;2023-03-14T15:16:27;11.10;;;6.00;;
16892;SDS011;8563;52.242;9.098;2023-03-14T15:19:02;5.87;;;1.80;;
16892;SDS011;8563;52.242;9.098;2023-03-14T15:21:35;5.97;;;1.87;;
16892;SDS011;8563;52.242;9.098;2023-03-14T15:24:08;7.93;;;1.80;;
16892;SDS011;8563;52.242;9.098;2023-03-14T15:26:41;7.23;;;1.50;;
16892;SDS011;8563;52.242;9.098;2023-03-14T15:29:15;5.97;;;1.60;;
16892;SDS011;8563;52.242;9.098;2023-03-14T15:31:47;9.57;;;1.70;;
16892;SDS011;8563;52.242;9.098;2023-03-14T15:34:21;6.80;;;1.67;;
16892;SDS011;8563;52.242;9.098;2023-03-14T15:36:54;3.40;;;1.17;;
16892;SDS011;8563;52.242;9.098;2023-03-14T15:39:27;10.00;;;1.47;;
16892;SDS011;8563;52.242;9.098;2023-03-14T15:41:59;9.00;;;1.20;;
16892;SDS011;8563;52.242;9.098;2023-03-14T15:44:32;6.93;;;1.53;;
16892;SDS011;8563;52.242;9.098;2023-03-14T15:47:05;7.77;;;1.43;;
16892;SDS011;8563;52.242;9.098;2023-03-14T15:49:39;7.57;;;1.50;;
16892;SDS011;8563;52.242;9.098;2023-03-14T15:52:11;7.33;;;1.73;;
16892;SDS011;8563;52.242;9.098;2023-03-14T15:54:44;5.03;;;1.23;;
16892;SDS011;8563;52.242;9.098;2023-03-14T15:57:16;7.97;;;1.87;;
16892;SDS011;8563;52.242;9.098;2023-03-14T15:59:48;6.90;;;1.57;;
16892;SDS011;8563;52.242;9.098;2023-03-14T16:02:21;7.67;;;1.43;;
16892;SDS011;8563;52.242;9.098;2023-03-14T16:04:55;5.87;;;1.37;;